Terminal Aerodrome Forecast
Issued by NWS

Current Version | Previous Version | Graphics & Text | Print | Product List | Glossary On
Versions: 1 2 3 4 5 6 7 8 9 10 11 12 13 14 15 16 17 18 19 20
000
FTUS41 KILN 161100
TAFLCK
TAF
KLCK 161122Z 1612/1712 13011KT P6SM VCSH OVC040
     FM161500 17010KT P6SM VCSH OVC025
     FM162200 19006KT 5SM -SHRA OVC020
     FM170500 23005KT 4SM BR OVC010=

USA.gov is the U.S. government's official web portal to all federal, state and local government web resources and services.